Barbados Meteorological Services
Auto gathered TAF list
Powered by Apparatus software
For Flight AA2725
Contact Number 1-(246)-535-0021/2/3/4/5/6
WEB: http://www.barbadosweather.org

**********************************************

2018/04/25 06:54
TAF TLPL 250500Z 2506/2606 11013KT 9999 SCT024
TEMPO 2506/2600 SHRA BKN018 PROB40
TEMPO 2512/2600 5000 SHRA FEW015CB


**********************************************
2018/04/25 06:22
TAF TJSJ 250520Z 2506/2606 11006KT P6SM FEW025 SCT040 SCT100
FM251400 08014KT P6SM SCT030
FM252200 10011KT P6SM SCT026


**********************************************
2018/04/25 06:52
TAF TFFR 250400Z 2506/2606 VRB03KT 9999 FEW017 SCT053
BECMG 2511/2513 11012KT
TEMPO 2506/2606 4000 SHRA BKN018TCU


**********************************************
2018/04/25 06:32
TAF TBPB 250500Z 2506/2606 13012KT 9999 SCT018 PROB30
TEMPO 2506/2512 5000 SHRA BKN014 SCT040


**********************************************
2018/04/25 06:28
TAF TAPA 250500Z 2506/2606 10007KT 9999 SCT018 PROB30
TEMPO 2506/2514 SHRA


**********************************************
2018/04/24 18:54
TAF MYNN 241700Z 2418/2518 18007KT 9999 VCSH SCT018CB BKN200 PROB30
TEMPO 2500/2504 22006G16KT 4800 TSRA SCT014CB BKN018 BKN200


**********************************************
2018/04/24 12:54
TAF MTPP 241100Z 2412/2512 12007KT 7000 FEW022
BECMG 2419/2422 27010KT SCT026CB PROB40
TEMPO 2500/2505 4500 TSRA SCT024CB BKN040
BECMG 2506/2510 VRB02KT 90000 NSW FEW020


**********************************************
2018/04/25 06:57
TAF MDSD 250400Z 2506/2606 0300KT 9999 FEW016CB SCT018 PROB30 2506/2510 8000 -RA FEW014CB SCT016 BKN070 2519/2521 15010KT


**********************************************
2018/04/25 06:45
TAF KSFB 250541Z 2506/2606 27005KT P6SM SKC
FM251600 28010KT P6SM FEW040


**********************************************
2018/04/25 08:33
TAF
AMD KPHL 250826Z 2508/2612 10010KT 3SM -RA BR OVC007
TEMPO 2508/2511 2SM RA BR
FM251100 08009KT 2SM RA BR OVC007
FM251500 07006KT P6SM OVC006
FM252100 VRB02KT P6SM OVC010 PROB30 2521/2524 5SM -SHRA
FM260300 30004KT P6SM BKN009
FM260700 31007KT P6SM BKN050


**********************************************
2018/04/25 06:33
TAF KPBI 250530Z 2506/2606 28007KT P6SM FEW030 SCT060 BKN090
FM251400 29010KT P6SM FEW035
FM260000 25005KT P6SM SKC


**********************************************
2018/04/25 07:22
TAF
AMD KOPF 250720Z 2507/2606 33008KT P6SM VCSH SCT025 BKN050 OVC090
FM251000 32005KT P6SM FEW025 SCT060 BKN120
FM251600 28010KT P6SM FEW035
FM260000 27005KT P6SM SKC


**********************************************


**********************************************
2018/04/25 07:21
TAF
AMD KMIA 250719Z 2507/2612 31005KT P6SM VCSH SCT025 BKN060 OVC090
FM251000 32005KT P6SM FEW025 SCT060 BKN120
FM251600 28010KT P6SM FEW035
FM260000 28005KT P6SM SKC


**********************************************
2018/04/25 06:45
TAF KMCO 250541Z 2506/2612 27005KT P6SM SKC
FM251600 27010G17KT P6SM SCT040
FM252300 26007KT P6SM SKC


**********************************************
2018/04/25 09:33
TAF
AMD KJFK 250831Z 2509/2612 11012KT 3SM RA BR OVC006
TEMPO 2513/2516 1SM +RA BR SCT006 OVC012
FM251600 10014G20KT 2SM SHRA BR OVC006
FM251800 14007KT 3SM -SHRA BR OVC006
FM252100 VRB05KT 1/2SM -SHRA FG OVC004
FM260700 28007KT 3SM BR SCT007 OVC015
FM261000 29012KT P6SM FEW010 BKN025


**********************************************
2018/04/25 06:22
TAF KJAX 250520Z 2506/2606 25006KT P6SM BKN060
FM251400 27011KT P6SM SCT060


**********************************************
2018/04/25 07:29
TAF
AMD KFLL 250718Z 2507/2612 32005KT P6SM VCSH SCT020 BKN050 OVC090
FM251000 32005KT P6SM FEW020 SCT050 BKN120
FM251500 29010KT P6SM FEW035
FM252100 17010KT P6SM SKC
FM260000 28005KT P6SM SKC


**********************************************
2018/04/25 09:33
TAF
AMD KEWR 250831Z 2509/2612 09010KT 3SM RA BR OVC006
TEMPO 2513/2516 1SM +RA BR SCT006 OVC012
FM251600 06012G18KT 2SM SHRA BR OVC006
FM251800 05005KT 3SM -SHRA BR OVC006
FM252100 VRB04KT 1/2SM -SHRA FG OVC004
FM260600 29009KT 3SM BR SCT007 OVC015
FM260900 28012KT P6SM FEW010 BKN025


**********************************************
2018/04/25 08:48
TAF
AMD KCLT 250747Z 2508/2612 29004KT 6SM BR FEW008 SCT020 BKN040
TEMPO 2509/2511 4SM BR BKN008
FM251100 29004KT 4SM BR SCT005 BKN010
FM251300 30005KT P6SM SCT010 BKN050
FM251500 32007KT P6SM BKN060
FM260000 35004KT P6SM SCT060 BKN120


**********************************************
2018/04/25 09:51
TAF
AMD KATL 250848Z 2509/2612 29007KT P6SM SCT025 SCT045
TEMPO 2510/2512 BKN045
FM251200 30011KT P6SM BKN025
FM251600 31013G21KT P6SM BKN035
FM252100 31013G20KT P6SM SCT045
FM260000 32006KT P6SM SCT250
FM261100 05003KT P6SM BKN120


**********************************************